Time;durP1;ratioP1;P1;durP2;ratioP2;P2;SDS_P1;SDS_P2;PMS_P1;PMS_P2;Temp;Humidity;BMP_temperature;BMP_pressure;BME280_temperature;BME280_humidity;BME280_pressure;Samples;Min_cycle;Max_cycle;Signal;HPM_P1;HPM_P2
2024/01/22 00:01:43;;;;;;;12.50;8.50;;;;;;;-2.75;100.00;102572.53;5030996;28;20125;-72
2024/01/22 00:04:09;;;;;;;12.83;7.50;;;;;;;-2.80;100.00;102566.00;5031130;28;20427;-72
2024/01/22 00:06:39;;;;;;;15.20;7.57;;;;;;;-2.86;100.00;102571.19;5031395;28;20120;-74
2024/01/22 00:09:05;;;;;;;13.90;7.50;;;;;;;-3.15;100.00;102540.66;5031111;28;20042;-74
2024/01/22 00:11:32;;;;;;;12.80;7.50;;;;;;;-3.23;100.00;102571.63;5031565;28;20033;-73
2024/01/22 00:13:58;;;;;;;14.30;7.53;;;;;;;-3.21;100.00;102575.28;5031447;28;20025;-73
2024/01/22 00:16:24;;;;;;;14.13;8.03;;;;;;;-3.31;100.00;102567.25;5030812;28;20048;-78
2024/01/22 00:18:49;;;;;;;13.50;7.20;;;;;;;-3.68;100.00;102532.28;5030921;28;20041;-74
2024/01/22 00:21:16;;;;;;;13.37;7.07;;;;;;;-3.47;100.00;102554.31;5030373;28;20503;-72
2024/01/22 00:23:41;;;;;;;14.30;7.60;;;;;;;-3.68;100.00;102533.19;5030766;28;20129;-74
2024/01/22 00:26:09;;;;;;;9.77;6.20;;;;;;;-3.56;100.00;102559.09;5029115;28;20523;-76
2024/01/22 00:28:34;;;;;;;11.37;6.20;;;;;;;-3.46;100.00;102583.91;5029852;28;20044;-74
2024/01/22 00:31:00;;;;;;;13.80;6.57;;;;;;;-3.60;100.00;102578.00;5031179;28;20029;-73
2024/01/22 00:33:25;;;;;;;10.27;6.17;;;;;;;-3.61;100.00;102591.31;5030174;28;20571;-73
2024/01/22 00:35:51;;;;;;;11.10;6.20;;;;;;;-3.80;100.00;102582.09;5030244;28;20037;-73
2024/01/22 00:38:16;;;;;;;9.27;5.27;;;;;;;-3.81;100.00;102586.25;5029295;28;20057;-73
2024/01/22 00:40:42;;;;;;;11.50;6.17;;;;;;;-3.97;100.00;102587.50;5030046;28;20029;-73
2024/01/22 00:43:07;;;;;;;10.87;6.07;;;;;;;-4.04;100.00;102577.31;5030023;28;20032;-73
2024/01/22 00:45:33;;;;;;;10.50;5.83;;;;;;;-3.84;100.00;102580.78;5027936;28;20412;-73
2024/01/22 00:47:58;;;;;;;10.67;5.33;;;;;;;-3.87;100.00;102577.00;5030748;28;20025;-72
2024/01/22 00:50:23;;;;;;;12.43;6.13;;;;;;;-4.11;100.00;102574.00;5029620;28;20535;-73
2024/01/22 00:52:49;;;;;;;14.10;6.60;;;;;;;-4.46;100.00;102499.75;5030307;28;20040;-74
2024/01/22 00:55:14;;;;;;;14.47;6.83;;;;;;;-4.22;100.00;102559.09;5030077;28;20112;-73
2024/01/22 00:57:40;;;;;;;11.97;6.27;;;;;;;-4.07;100.00;102581.25;5030780;28;20048;-73
2024/01/22 01:00:07;;;;;;;11.33;5.53;;;;;;;-4.14;100.00;102571.06;5030068;28;20056;-73
2024/01/22 01:02:33;;;;;;;12.37;6.93;;;;;;;-4.00;100.00;102569.44;5030862;28;20037;-74
2024/01/22 01:04:59;;;;;;;12.53;6.87;;;;;;;-4.24;100.00;102535.28;5029647;28;20036;-74
2024/01/22 01:07:24;;;;;;;13.57;6.80;;;;;;;-4.15;100.00;102561.72;5028640;28;20068;-72
2024/01/22 01:09:50;;;;;;;12.07;5.63;;;;;;;-4.01;100.00;102555.94;5029018;28;20026;-74
2024/01/22 01:12:16;;;;;;;10.17;6.03;;;;;;;-3.88;100.00;102571.03;5028217;28;20034;-74
2024/01/22 01:14:41;;;;;;;10.70;5.90;;;;;;;-4.19;100.00;102505.63;5029586;28;20025;-72
2024/01/22 01:17:07;;;;;;;11.50;6.23;;;;;;;-4.64;100.00;102454.50;5029715;28;20484;-74
2024/01/22 01:19:32;;;;;;;9.87;5.20;;;;;;;-4.00;100.00;102554.28;5029949;28;20108;-73
2024/01/22 01:21:58;;;;;;;9.87;5.13;;;;;;;-4.18;100.00;102526.00;5029716;28;20060;-73
2024/01/22 01:24:23;;;;;;;11.90;5.70;;;;;;;-4.10;100.00;102560.69;5029651;28;20128;-74
2024/01/22 01:26:49;;;;;;;10.13;5.50;;;;;;;-4.18;100.00;102560.41;5029787;28;20025;-73
2024/01/22 01:29:14;;;;;;;11.40;5.30;;;;;;;-4.35;100.00;102526.31;5030368;28;20025;-77
2024/01/22 01:31:40;;;;;;;10.87;5.30;;;;;;;-4.03;100.00;102567.44;5029506;28;20040;-73
2024/01/22 01:34:06;;;;;;;9.37;5.80;;;;;;;-4.08;100.00;102543.22;5029564;28;20079;-76
2024/01/22 01:36:31;;;;;;;11.27;5.27;;;;;;;-3.96;100.00;102561.56;5029290;28;20033;-74
2024/01/22 01:38:57;;;;;;;10.93;5.30;;;;;;;-3.91;100.00;102561.44;5029610;28;20044;-73
2024/01/22 01:41:22;;;;;;;10.27;5.23;;;;;;;-4.00;100.00;102566.91;5029301;28;20029;-74
2024/01/22 01:43:48;;;;;;;10.70;5.80;;;;;;;-4.46;100.00;102524.97;5029929;28;20033;-74
2024/01/22 01:46:13;;;;;;;10.47;6.00;;;;;;;-4.83;100.00;102479.81;5029392;28;20083;-74
2024/01/22 01:48:39;;;;;;;9.47;5.37;;;;;;;-4.67;100.00;102560.88;5026853;28;20049;-73
2024/01/22 01:51:05;;;;;;;9.13;5.70;;;;;;;-4.63;100.00;102553.00;5029886;28;20523;-75
2024/01/22 01:53:33;;;;;;;11.53;6.03;;;;;;;-4.45;100.00;102534.34;5029444;28;20049;-74
2024/01/22 01:55:59;;;;;;;16.47;6.50;;;;;;;-4.40;100.00;102525.75;5029257;28;20415;-74
2024/01/22 01:58:25;;;;;;;14.50;6.93;;;;;;;-4.23;100.00;102555.66;5028514;28;20037;-73
2024/01/22 02:00:54;;;;;;;12.60;6.40;;;;;;;-4.11;100.00;102548.78;5029103;28;20038;-73
2024/01/22 02:03:19;;;;;;;12.73;6.97;;;;;;;-4.09;100.00;102548.97;5029283;28;20054;-74
2024/01/22 02:05:46;;;;;;;15.03;7.00;;;;;;;-3.81;100.00;102558.47;5027060;28;20523;-72
2024/01/22 02:08:11;;;;;;;16.70;7.60;;;;;;;-4.23;100.00;102461.44;5027102;28;20507;-73
2024/01/22 02:10:37;;;;;;;15.73;6.90;;;;;;;-4.07;100.00;102479.47;5026470;28;20156;-72
2024/01/22 02:13:04;;;;;;;14.30;6.30;;;;;;;-3.74;100.00;102513.13;5026428;28;20083;-73
2024/01/22 02:15:30;;;;;;;13.97;6.87;;;;;;;-3.49;100.00;102556.63;5024863;28;20552;-72
2024/01/22 02:18:04;;;;;;;12.63;6.53;;;;;;;-3.97;100.00;102458.84;5029238;28;20523;-72
2024/01/22 02:20:30;;;;;;;12.63;5.97;;;;;;;-3.54;100.00;102559.28;5030230;28;20029;-72
2024/01/22 02:23:03;;;;;;;14.07;5.87;;;;;;;-3.52;100.00;102553.72;5028195;28;20407;-73
2024/01/22 02:25:29;;;;;;;12.73;6.37;;;;;;;-3.61;100.00;102534.88;5027091;28;20030;-73
2024/01/22 02:27:54;;;;;;;13.17;6.90;;;;;;;-3.49;100.00;102553.19;5029687;28;20041;-72
2024/01/22 02:30:20;;;;;;;14.20;6.63;;;;;;;-3.50;100.00;102556.41;5029826;28;20025;-72
2024/01/22 02:32:45;;;;;;;11.67;6.03;;;;;;;-3.47;100.00;102541.69;5030130;28;20459;-76
2024/01/22 02:35:11;;;;;;;12.60;6.73;;;;;;;-4.02;100.00;102464.91;5027738;28;20025;-71
2024/01/22 02:37:38;;;;;;;13.63;6.57;;;;;;;-3.99;100.00;102453.56;5028022;28;20492;-73
2024/01/22 02:40:04;;;;;;;17.93;6.97;;;;;;;-3.67;100.00;102556.81;5028650;28;20041;-72
2024/01/22 02:42:29;;;;;;;11.13;6.37;;;;;;;-4.23;100.00;102472.44;5028657;28;20030;-73
2024/01/22 02:44:55;;;;;;;10.20;6.27;;;;;;;-3.95;100.00;102538.13;5029225;28;20462;-75
2024/01/22 02:47:20;;;;;;;13.03;6.57;;;;;;;-3.86;100.00;102549.41;5028991;28;20116;-73
2024/01/22 02:49:46;;;;;;;13.37;7.47;;;;;;;-3.86;100.00;102541.84;5027816;28;20381;-73
2024/01/22 02:52:11;;;;;;;11.47;6.50;;;;;;;-4.84;100.00;102424.22;5033106;28;20415;-71
2024/01/22 02:54:37;;;;;;;12.27;5.97;;;;;;;-5.01;100.00;102455.63;5033536;28;20030;-72
2024/01/22 02:57:02;;;;;;;16.70;7.97;;;;;;;-4.60;100.00;102549.97;5033451;28;20087;-72
2024/01/22 02:59:28;;;;;;;17.80;9.23;;;;;;;-4.81;100.00;102530.41;5031591;28;20029;-74
2024/01/22 03:01:53;;;;;;;21.17;12.40;;;;;;;-4.72;100.00;102555.22;5031253;28;20021;-73
2024/01/22 03:04:19;;;;;;;38.10;16.67;;;;;;;-4.77;100.00;102558.75;5030870;28;20040;-73
2024/01/22 03:06:44;;;;;;;37.67;17.23;;;;;;;-5.40;100.00;102458.13;5032976;28;20037;-71
2024/01/22 03:09:10;;;;;;;30.73;14.07;;;;;;;-4.84;100.00;102563.69;5032969;28;20064;-72
2024/01/22 03:11:35;;;;;;;20.33;10.73;;;;;;;-4.85;100.00;102561.84;5032732;28;20068;-71
2024/01/22 03:14:01;;;;;;;17.43;8.17;;;;;;;-5.00;100.00;102534.66;5032985;28;20025;-76
2024/01/22 03:16:26;;;;;;;12.60;6.90;;;;;;;-5.43;100.00;102479.47;5032997;28;20033;-76
2024/01/22 03:18:53;;;;;;;14.80;7.23;;;;;;;-5.12;100.00;102571.69;5028393;28;20176;-73
2024/01/22 03:21:19;;;;;;;14.37;7.43;;;;;;;-5.30;100.00;102557.56;5030889;28;20120;-71
2024/01/22 03:23:44;;;;;;;12.47;6.50;;;;;;;-5.40;100.00;102532.75;5032621;28;20491;-73
2024/01/22 03:26:20;;;;;;;15.07;6.63;;;;;;;-5.24;100.00;102559.28;5029938;28;20072;-73
2024/01/22 03:28:50;;;;;;;16.73;7.10;;;;;;;-5.08;100.00;102564.75;5029459;28;20051;-72
2024/01/22 03:31:20;;;;;;;18.90;8.10;;;;;;;-5.33;100.00;102522.81;5028274;28;20041;-72
2024/01/22 03:33:45;;;;;;;28.20;9.83;;;;;;;-5.04;100.00;102576.16;5029316;28;20060;-73
2024/01/22 03:36:11;;;;;;;18.90;7.57;;;;;;;-5.20;100.00;102556.50;5031281;28;20575;-72
2024/01/22 03:38:38;;;;;;;17.20;8.77;;;;;;;-5.38;100.00;102566.63;5028412;28;20064;-73
2024/01/22 03:41:04;;;;;;;20.03;10.33;;;;;;;-5.40;100.00;102563.88;5030708;28;20095;-73
2024/01/22 03:43:30;;;;;;;39.80;13.00;;;;;;;-5.44;100.00;102576.75;5031729;28;20487;-72
2024/01/22 03:45:55;;;;;;;20.17;8.97;;;;;;;-5.34;100.00;102576.38;5031921;28;20032;-71
2024/01/22 03:48:21;;;;;;;11.03;6.53;;;;;;;-5.18;100.00;102565.84;5031625;28;20025;-72
2024/01/22 03:50:46;;;;;;;11.67;5.97;;;;;;;-5.06;100.00;102573.44;5031103;28;20498;-73
2024/01/22 03:53:12;;;;;;;11.17;6.03;;;;;;;-5.27;100.00;102513.56;5030253;28;20119;-75
2024/01/22 03:55:37;;;;;;;8.00;4.63;;;;;;;-4.82;100.00;102579.91;5029295;28;20037;-73
2024/01/22 03:58:03;;;;;;;12.20;4.83;;;;;;;-4.67;100.00;102565.91;5029791;28;20468;-71
2024/01/22 04:00:28;;;;;;;9.30;4.47;;;;;;;-4.60;100.00;102563.50;5032250;28;20025;-72
2024/01/22 04:02:54;;;;;;;8.90;4.20;;;;;;;-4.54;100.00;102570.94;5032207;28;20033;-72
2024/01/22 04:05:19;;;;;;;8.63;4.63;;;;;;;-4.47;100.00;102572.66;5028950;28;20037;-73
2024/01/22 04:07:45;;;;;;;13.53;5.33;;;;;;;-4.41;100.00;102579.41;5030981;28;20038;-74
2024/01/22 04:10:10;;;;;;;16.57;8.87;;;;;;;-4.35;100.00;102570.81;5027065;28;20045;-73
2024/01/22 04:12:37;;;;;;;17.77;9.47;;;;;;;-4.42;100.00;102562.47;5032043;28;20040;-72
2024/01/22 04:15:03;;;;;;;23.53;10.03;;;;;;;-4.83;100.00;102497.47;5031770;28;20063;-78
2024/01/22 04:17:29;;;;;;;10.73;7.27;;;;;;;-4.43;100.00;102563.16;5031576;28;20507;-76
2024/01/22 04:19:55;;;;;;;10.50;6.47;;;;;;;-4.52;100.00;102564.50;5031674;28;20120;-73
2024/01/22 04:22:20;;;;;;;10.27;6.23;;;;;;;-4.91;100.00;102504.03;5029016;28;20099;-72
2024/01/22 04:24:46;;;;;;;13.10;5.53;;;;;;;-4.61;100.00;102576.78;5026980;28;20059;-72
2024/01/22 04:27:11;;;;;;;10.77;5.07;;;;;;;-5.17;100.00;102482.97;5030089;28;20032;-73
2024/01/22 04:29:37;;;;;;;14.17;5.17;;;;;;;-4.67;100.00;102570.03;5029382;28;20500;-72
2024/01/22 04:32:02;;;;;;;9.10;5.10;;;;;;;-4.68;100.00;102556.53;5029468;28;20029;-72
2024/01/22 04:34:28;;;;;;;9.63;4.90;;;;;;;-4.71;100.00;102544.44;5029298;28;20570;-73
2024/01/22 04:36:54;;;;;;;7.93;4.60;;;;;;;-4.53;100.00;102581.94;5031621;28;20072;-72
2024/01/22 04:39:19;;;;;;;6.70;4.90;;;;;;;-5.01;100.00;102477.41;5031207;28;20095;-73
2024/01/22 04:41:47;;;;;;;9.53;5.13;;;;;;;-4.31;100.00;102578.06;5031311;28;20029;-71
2024/01/22 04:44:12;;;;;;;8.67;5.07;;;;;;;-4.22;100.00;102571.72;5031360;28;20032;-72
2024/01/22 04:46:37;;;;;;;9.77;5.90;;;;;;;-4.02;100.00;102583.50;5031443;28;20025;-71
2024/01/22 04:49:03;;;;;;;9.93;5.07;;;;;;;-4.50;100.00;102500.03;5031428;28;20045;-74
2024/01/22 04:51:28;;;;;;;11.33;5.10;;;;;;;-3.99;100.00;102588.91;5031042;28;20095;-73
2024/01/22 04:53:54;;;;;;;8.33;5.37;;;;;;;-3.95;100.00;102594.56;5031019;28;20029;-72
2024/01/22 04:56:19;;;;;;;9.30;5.40;;;;;;;-3.97;100.00;102595.06;5029913;28;20436;-72
2024/01/22 04:58:45;;;;;;;12.53;6.97;;;;;;;-4.08;100.00;102597.09;5031099;28;20037;-72
2024/01/22 05:01:12;;;;;;;13.83;7.07;;;;;;;-4.60;100.00;102513.09;5030894;28;20539;-72
2024/01/22 05:03:37;;;;;;;12.37;6.80;;;;;;;-4.73;100.00;102518.09;5030989;28;20048;-71
2024/01/22 05:06:03;;;;;;;13.47;6.90;;;;;;;-4.31;100.00;102611.78;5030987;28;20471;-72
2024/01/22 05:08:28;;;;;;;12.83;6.07;;;;;;;-4.48;100.00;102624.69;5030701;28;20025;-72
2024/01/22 05:10:54;;;;;;;10.73;5.97;;;;;;;-5.21;100.00;102524.44;5031009;28;20033;-72
2024/01/22 05:13:20;;;;;;;13.93;6.40;;;;;;;-4.98;100.00;102598.75;5030361;28;20029;-72
2024/01/22 05:15:45;;;;;;;11.73;5.73;;;;;;;-4.93;100.00;102625.44;5028238;28;20033;-73
2024/01/22 05:18:11;;;;;;;16.20;7.57;;;;;;;-4.79;100.00;102620.63;5028634;28;20150;-72
2024/01/22 05:20:36;;;;;;;11.87;5.30;;;;;;;-4.81;100.00;102603.47;5028966;28;20415;-71
2024/01/22 05:23:01;;;;;;;13.10;6.27;;;;;;;-4.60;100.00;102623.06;5029912;28;20029;-76
2024/01/22 05:25:27;;;;;;;9.60;5.23;;;;;;;-4.56;100.00;102625.28;5029096;28;20037;-71
2024/01/22 05:27:52;;;;;;;10.57;5.57;;;;;;;-4.54;100.00;102621.34;5030238;28;20033;-73
2024/01/22 05:30:18;;;;;;;10.33;5.67;;;;;;;-4.61;100.00;102616.19;5029282;28;20063;-72
2024/01/22 05:32:43;;;;;;;10.97;5.50;;;;;;;-4.57;100.00;102608.34;5029376;28;20029;-72
2024/01/22 05:35:09;;;;;;;11.20;5.30;;;;;;;-5.11;100.00;102518.09;5030388;28;20032;-74
2024/01/22 05:37:34;;;;;;;10.43;5.30;;;;;;;-4.73;100.00;102602.91;5029544;28;20029;-74
2024/01/22 05:40:00;;;;;;;11.13;5.43;;;;;;;-4.88;100.00;102569.91;5030215;28;20026;-72
2024/01/22 05:42:25;;;;;;;11.30;5.57;;;;;;;-4.57;100.00;102624.38;5026508;28;20029;-71
2024/01/22 05:44:51;;;;;;;8.90;4.83;;;;;;;-4.55;100.00;102619.53;5028289;28;20021;-72
2024/01/22 05:47:36;;;;;;;10.57;6.10;;;;;;;-4.56;100.00;102612.66;5004902;28;20120;-71
2024/01/22 05:50:02;;;;;;;10.63;6.00;;;;;;;-4.49;100.00;102614.41;5008491;28;20132;-72
2024/01/22 05:52:28;;;;;;;14.03;7.10;;;;;;;-4.57;100.00;102628.53;5007088;28;20050;-76
2024/01/22 05:54:55;;;;;;;15.67;7.03;;;;;;;-4.58;100.00;102624.19;5006445;28;20532;-72
2024/01/22 05:57:20;;;;;;;18.47;7.43;;;;;;;-4.90;100.00;102563.78;4987128;28;20050;-72
2024/01/22 05:59:46;;;;;;;14.40;6.20;;;;;;;-4.46;100.00;102628.31;5004976;28;20053;-72
2024/01/22 06:02:11;;;;;;;19.13;8.77;;;;;;;-4.65;100.00;102604.81;5005040;28;20136;-72
2024/01/22 06:04:37;;;;;;;15.13;9.17;;;;;;;-5.08;100.00;102539.56;5007019;28;20409;-71
2024/01/22 06:07:02;;;;;;;20.50;11.13;;;;;;;-4.50;100.00;102637.78;5007573;28;20054;-73
2024/01/22 06:09:28;;;;;;;26.90;15.30;;;;;;;-4.42;100.00;102633.06;5002864;28;20455;-71
2024/01/22 06:11:53;;;;;;;17.13;9.50;;;;;;;-4.52;100.00;102622.47;5005474;28;20037;-72
2024/01/22 06:14:19;;;;;;;25.17;9.90;;;;;;;-4.51;100.00;102643.53;5003117;28;20137;-72
2024/01/22 06:16:46;;;;;;;13.33;7.10;;;;;;;-4.70;100.00;102618.41;5006231;28;20132;-75
2024/01/22 06:19:12;;;;;;;14.23;8.40;;;;;;;-4.50;100.00;102641.22;4999701;28;20076;-74
2024/01/22 06:21:37;;;;;;;20.07;11.67;;;;;;;-4.68;100.00;102584.25;5026395;28;20511;-76
2024/01/22 06:24:03;;;;;;;13.60;8.80;;;;;;;-4.39;100.00;102635.06;5024088;28;20032;-74
2024/01/22 06:26:29;;;;;;;14.77;8.27;;;;;;;-4.36;100.00;102654.72;5028856;28;20033;-72
2024/01/22 06:28:57;;;;;;;14.67;7.93;;;;;;;-4.36;100.00;102639.59;5032978;28;20448;-73
2024/01/22 06:31:22;;;;;;;18.90;8.83;;;;;;;-4.35;100.00;102636.38;5028440;28;20132;-72
2024/01/22 06:33:49;;;;;;;12.63;7.47;;;;;;;-4.32;100.00;102634.28;5031698;28;20139;-72
2024/01/22 06:36:15;;;;;;;13.27;7.93;;;;;;;-4.26;100.00;102635.97;5033897;28;20404;-74
2024/01/22 06:38:41;;;;;;;21.43;12.33;;;;;;;-4.25;100.00;102641.91;5033074;28;20029;-72
2024/01/22 06:41:11;;;;;;;15.17;8.47;;;;;;;-4.31;100.00;102639.53;5033229;28;20037;-72
2024/01/22 06:43:37;;;;;;;11.50;7.20;;;;;;;-4.85;100.00;102553.41;5031334;28;20068;-71
2024/01/22 06:46:03;;;;;;;12.53;7.57;;;;;;;-4.30;100.00;102651.44;5032648;28;20510;-77
2024/01/22 06:48:29;;;;;;;11.13;6.53;;;;;;;-4.24;100.00;102651.31;5033170;28;20029;-73
2024/01/22 06:50:54;;;;;;;12.80;7.33;;;;;;;-4.26;100.00;102647.66;5032586;28;20083;-71
2024/01/22 06:53:20;;;;;;;14.27;8.63;;;;;;;-4.02;100.00;102664.22;5031409;28;20037;-72
2024/01/22 06:55:45;;;;;;;13.70;7.27;;;;;;;-3.94;100.00;102654.41;5031369;28;20034;-72
2024/01/22 06:58:10;;;;;;;11.30;6.83;;;;;;;-3.99;100.00;102624.25;5047966;28;20069;-72
2024/01/22 07:00:36;;;;;;;11.70;6.20;;;;;;;-3.73;100.00;102655.38;5051137;28;20486;-71
2024/01/22 07:03:03;;;;;;;12.47;7.40;;;;;;;-3.65;100.00;102656.34;5049996;28;20053;-76
2024/01/22 07:05:29;;;;;;;13.00;6.93;;;;;;;-3.52;100.00;102669.84;5043172;28;20037;-72
2024/01/22 07:07:55;;;;;;;13.23;7.17;;;;;;;-3.51;100.00;102653.13;5047320;28;20513;-71
2024/01/22 07:10:21;;;;;;;15.43;7.00;;;;;;;-3.41;100.00;102677.19;5047290;28;20041;-70
2024/01/22 07:12:47;;;;;;;15.10;7.50;;;;;;;-3.27;100.00;102684.00;5049464;28;20045;-71
2024/01/22 07:15:12;;;;;;;14.13;8.47;;;;;;;-3.52;100.00;102600.78;5048396;28;20033;-71
2024/01/22 07:17:39;;;;;;;15.07;9.00;;;;;;;-3.51;100.00;102595.03;5047862;28;20049;-71
2024/01/22 07:20:07;;;;;;;15.70;8.67;;;;;;;-3.05;100.00;102680.78;5050361;28;20045;-72
2024/01/22 07:22:34;;;;;;;16.23;8.63;;;;;;;-2.96;100.00;102674.38;5047239;28;20106;-71
2024/01/22 07:24:59;;;;;;;12.77;7.80;;;;;;;-2.93;100.00;102662.13;5050094;28;20091;-71
2024/01/22 07:27:45;;;;;;;15.43;9.27;;;;;;;-2.96;100.00;102665.19;5050435;28;20036;-70
2024/01/22 07:30:13;;;;;;;18.07;9.23;;;;;;;-3.02;100.00;102650.88;4988491;28;20520;-69
2024/01/22 07:32:41;;;;;;;20.70;10.83;;;;;;;-2.87;100.00;102665.44;4989141;28;20049;-70
2024/01/22 07:35:10;;;;;;;17.27;9.60;;;;;;;-2.76;100.00;102674.38;4989791;28;20093;-69
2024/01/22 07:37:42;;;;;;;22.53;12.83;;;;;;;-2.68;100.00;102666.13;4989677;28;20038;-70
2024/01/22 07:40:11;;;;;;;17.87;10.47;;;;;;;-2.55;100.00;102663.50;4990532;28;20039;-71
2024/01/22 07:42:37;;;;;;;19.58;10.82;;;;;;;-2.45;100.00;102663.03;4989796;28;20105;-71
2024/01/22 07:45:05;;;;;;;25.53;14.37;;;;;;;-2.41;100.00;102649.16;4990440;28;20034;-71
2024/01/22 07:47:32;;;;;;;17.20;11.37;;;;;;;-2.18;100.00;102667.16;4989917;28;20072;-77
2024/01/22 07:49:58;;;;;;;18.17;10.67;;;;;;;-2.28;100.00;102672.69;4989836;28;20424;-70
2024/01/22 07:52:24;;;;;;;18.07;10.57;;;;;;;-2.38;100.00;102657.09;4989628;28;20042;-70
2024/01/22 07:54:49;;;;;;;19.27;11.20;;;;;;;-2.26;100.00;102665.31;4990403;28;20049;-70
2024/01/22 07:57:15;;;;;;;21.73;11.30;;;;;;;-2.13;100.00;102676.22;4972901;28;20042;-71
2024/01/22 07:59:41;;;;;;;20.10;11.50;;;;;;;-2.01;100.00;102671.78;4990400;28;20070;-70
2024/01/22 08:02:07;;;;;;;18.40;10.50;;;;;;;-2.00;100.00;102666.00;4986434;28;20038;-70
2024/01/22 08:04:33;;;;;;;17.97;10.63;;;;;;;-1.90;100.00;102657.91;4988818;28;20038;-70
2024/01/22 08:07:00;;;;;;;16.37;9.93;;;;;;;-1.92;100.00;102672.91;4991155;28;20038;-71
2024/01/22 08:09:26;;;;;;;18.13;10.43;;;;;;;-1.88;100.00;102677.63;5030044;28;20480;-71
2024/01/22 08:11:52;;;;;;;18.23;9.40;;;;;;;-2.12;100.00;102657.78;5010584;28;20483;-71
2024/01/22 08:14:17;;;;;;;19.60;10.90;;;;;;;-2.65;100.00;102594.81;5028669;28;20072;-70
2024/01/22 08:16:44;;;;;;;18.23;10.57;;;;;;;-2.28;100.00;102660.06;5030554;28;20117;-70
2024/01/22 08:19:10;;;;;;;19.07;11.50;;;;;;;-2.05;100.00;102679.72;5030299;28;20064;-69
2024/01/22 08:21:36;;;;;;;17.20;10.10;;;;;;;-2.02;100.00;102657.31;5031451;28;20034;-69
2024/01/22 08:24:01;;;;;;;17.87;10.07;;;;;;;-1.83;100.00;102673.16;5027710;28;20034;-69
2024/01/22 08:26:27;;;;;;;16.70;9.60;;;;;;;-1.86;100.00;102648.31;5028987;28;20033;-70
2024/01/22 08:28:52;;;;;;;16.90;9.97;;;;;;;-1.64;100.00;102671.22;5030773;28;20034;-72
2024/01/22 08:31:18;;;;;;;17.83;10.97;;;;;;;-1.59;100.00;102670.16;5028573;28;20041;-69
2024/01/22 08:33:44;;;;;;;19.23;11.30;;;;;;;-1.77;100.00;102663.72;5031865;28;20037;-69
2024/01/22 08:36:10;;;;;;;16.23;9.97;;;;;;;-1.74;100.00;102665.75;5031229;28;20045;-71
2024/01/22 08:38:35;;;;;;;17.93;11.07;;;;;;;-1.92;100.00;102642.50;5027146;28;20021;-72
2024/01/22 08:41:03;;;;;;;16.23;9.90;;;;;;;-1.94;100.00;102661.69;5027803;28;20035;-70
2024/01/22 08:43:29;;;;;;;16.87;10.93;;;;;;;-1.92;100.00;102655.16;5029356;28;20033;-70
2024/01/22 08:45:54;;;;;;;15.57;9.80;;;;;;;-1.93;100.00;102663.50;5028508;28;20408;-71
2024/01/22 08:48:20;;;;;;;18.20;11.50;;;;;;;-1.92;100.00;102647.56;5029777;28;20066;-70
2024/01/22 08:50:45;;;;;;;17.67;10.60;;;;;;;-2.02;100.00;102647.19;5028120;28;20036;-71
2024/01/22 08:53:11;;;;;;;19.37;11.23;;;;;;;-1.90;100.00;102648.69;5030180;28;20026;-70
2024/01/22 08:55:36;;;;;;;17.90;10.40;;;;;;;-1.73;100.00;102647.28;5030247;28;20121;-71
2024/01/22 08:58:04;;;;;;;15.87;8.00;;;;;;;-2.21;100.00;102563.94;5030719;28;20491;-71
2024/01/22 09:00:30;;;;;;;13.20;7.77;;;;;;;-1.61;100.00;102641.19;5027654;28;20112;-71
2024/01/22 09:02:56;;;;;;;11.97;7.10;;;;;;;-1.58;100.00;102641.56;5029214;28;20120;-71
2024/01/22 09:05:21;;;;;;;13.93;8.20;;;;;;;-1.47;100.00;102628.56;5026420;28;20025;-71
2024/01/22 09:07:48;;;;;;;13.87;8.33;;;;;;;-1.33;100.00;102636.91;5035737;28;20045;-70
2024/01/22 09:10:14;;;;;;;14.00;7.73;;;;;;;-1.33;100.00;102616.66;5029836;28;20036;-71
2024/01/22 09:12:39;;;;;;;12.93;8.03;;;;;;;-1.34;100.00;102615.72;5030839;28;20124;-70
2024/01/22 09:15:06;;;;;;;14.47;8.97;;;;;;;-1.25;100.00;102615.91;5029957;28;20029;-71
2024/01/22 09:17:33;;;;;;;15.80;9.17;;;;;;;-1.32;100.00;102555.13;5029984;28;20494;-70
2024/01/22 09:19:59;;;;;;;22.20;11.43;;;;;;;-0.75;100.00;102602.31;5029737;28;20099;-71
2024/01/22 09:22:28;;;;;;;15.47;9.57;;;;;;;-0.72;100.00;102582.38;5030723;28;20025;-70
2024/01/22 09:24:54;;;;;;;17.08;10.52;;;;;;;-0.51;100.00;102578.91;5027595;28;20025;-75
2024/01/22 09:27:19;;;;;;;13.30;8.03;;;;;;;-0.53;100.00;102580.34;5027728;28;20076;-72
2024/01/22 09:29:45;;;;;;;16.43;9.53;;;;;;;-0.52;100.00;102554.25;5029576;28;20057;-69
2024/01/22 09:32:11;;;;;;;15.57;8.83;;;;;;;-0.40;100.00;102564.91;5029338;28;20120;-70
2024/01/22 09:34:37;;;;;;;14.73;8.43;;;;;;;-0.17;100.00;102572.59;5030716;28;20037;-71
2024/01/22 09:37:03;;;;;;;15.33;7.10;;;;;;;-0.31;100.00;102559.06;5027689;28;20025;-71
2024/01/22 09:39:29;;;;;;;10.87;5.93;;;;;;;-0.53;100.00;102554.09;5029526;28;20025;-70
2024/01/22 09:41:55;;;;;;;11.40;6.70;;;;;;;-0.08;100.00;102560.06;5027165;28;20033;-70
2024/01/22 09:44:21;;;;;;;15.67;7.27;;;;;;;-0.30;100.00;102498.31;5026536;28;20030;-72
2024/01/22 09:46:47;;;;;;;10.57;6.33;;;;;;;0.04;100.00;102550.41;5027010;28;20040;-71
2024/01/22 09:49:13;;;;;;;7.50;4.90;;;;;;;0.10;100.00;102548.53;5029449;28;20040;-70
2024/01/22 09:51:43;;;;;;;12.03;7.50;;;;;;;-0.01;100.00;102478.75;5029366;28;20041;-70
2024/01/22 09:54:10;;;;;;;;;;;;;;;0.62;100.00;102529.66;5028057;28;20026;-76
2024/01/22 09:56:36;;;;;;;10.57;6.50;;;;;;;0.66;100.00;102538.53;5028879;28;20003;-73
2024/01/22 09:59:17;;;;;;;11.43;6.70;;;;;;;0.78;100.00;102525.50;5030470;28;20040;-72
2024/01/22 10:01:43;;;;;;;9.68;5.57;;;;;;;0.97;100.00;102527.53;5033874;28;20041;-74
2024/01/22 10:04:11;;;;;;;12.30;7.05;;;;;;;1.12;100.00;102529.22;5033773;28;20025;-74
2024/01/22 10:06:39;;;;;;;9.73;6.25;;;;;;;1.05;100.00;102529.28;5031120;28;20025;-74
2024/01/22 10:09:05;;;;;;;9.30;5.90;;;;;;;1.16;100.00;102512.63;5032703;28;20119;-73
2024/01/22 10:11:33;;;;;;;8.45;5.43;;;;;;;1.38;100.00;102528.53;5032955;28;20095;-73
2024/01/22 10:13:59;;;;;;;8.02;5.13;;;;;;;1.37;100.00;102502.94;5033533;28;20021;-71
2024/01/22 10:16:31;;;;;;;9.65;6.05;;;;;;;1.65;100.00;102510.97;5034220;28;20483;-73
2024/01/22 10:19:05;;;;;;;9.60;5.93;;;;;;;1.20;100.00;102433.34;5020486;28;20131;-74
2024/01/22 10:21:31;;;;;;;7.28;4.25;;;;;;;1.34;100.00;102505.16;5033910;28;20044;-71
2024/01/22 10:24:00;;;;;;;7.25;4.90;;;;;;;1.32;100.00;102487.19;5033215;28;20022;-72
2024/01/22 10:26:27;;;;;;;6.70;3.83;;;;;;;1.78;100.00;102504.78;5029661;28;20028;-73
2024/01/22 10:28:53;;;;;;;7.88;5.15;;;;;;;1.85;100.00;102470.66;5030431;28;20112;-71
2024/01/22 10:31:20;;;;;;;10.40;6.95;;;;;;;2.24;100.00;102505.22;5030772;28;20069;-71
2024/01/22 10:33:46;;;;;;;7.63;4.63;;;;;;;2.30;100.00;102507.50;5032777;28;20457;-72
2024/01/22 10:36:17;;;;;;;8.55;4.68;;;;;;;2.49;100.00;102505.19;5033115;28;20155;-71
2024/01/22 10:38:47;;;;;;;7.32;4.75;;;;;;;2.30;100.00;102466.72;5033851;28;20090;-71
2024/01/22 10:41:19;;;;;;;6.93;4.03;;;;;;;2.61;99.59;102493.69;5031507;28;20029;-71
2024/01/22 10:43:46;;;;;;;7.15;4.65;;;;;;;2.36;98.50;102497.94;5030391;28;20033;-71
2024/01/22 10:46:12;;;;;;;8.63;4.25;;;;;;;1.73;100.00;102400.63;5033171;28;20436;-70
2024/01/22 10:48:40;;;;;;;7.32;4.45;;;;;;;2.22;100.00;102484.69;5031171;28;20029;-71
2024/01/22 10:51:06;;;;;;;7.50;4.55;;;;;;;2.45;100.00;102464.84;5033112;28;20025;-74
2024/01/22 10:53:32;;;;;;;5.93;3.83;;;;;;;2.53;100.00;102451.22;5031536;28;20559;-71
2024/01/22 10:56:04;;;;;;;7.90;4.43;;;;;;;2.39;100.00;102424.31;5033669;28;20171;-71
2024/01/22 10:58:48;;;;;;;8.82;4.55;;;;;;;2.74;99.86;102460.13;5033440;28;20033;-72
2024/01/22 11:01:16;;;;;;;6.80;4.30;;;;;;;2.73;99.47;102472.00;5033661;28;20480;-76
2024/01/22 11:03:48;;;;;;;8.98;4.47;;;;;;;2.23;100.00;102374.34;5033297;28;20488;-72
2024/01/22 11:06:20;;;;;;;7.25;4.22;;;;;;;2.66;100.00;102443.19;5033367;28;20495;-71
2024/01/22 11:08:56;;;;;;;6.65;4.13;;;;;;;2.96;100.00;102452.09;5047904;28;20190;-72